Time;durP1;ratioP1;P1;durP2;ratioP2;P2;SDS_P1;SDS_P2;PMS_P1;PMS_P2;Temp;Humidity;BMP_temperature;BMP_pressure;BME280_temperature;BME280_humidity;BME280_pressure;Samples;Min_cycle;Max_cycle;Signal;HPM_P1;HPM_P2
2023/04/07 00:00:57;;;;;;;3.00;2.33;;;;;;;;;;5077073;28;20028;-30
2023/04/07 00:03:23;;;;;;;7.63;2.00;;;;;;;;;;5076919;28;20053;-30
2023/04/07 00:05:49;;;;;;;5.85;1.83;;;;;;;;;;5077062;28;20025;-30
2023/04/07 00:08:15;;;;;;;3.78;1.98;;;;;;;;;;5077241;28;20078;-28
2023/04/07 00:10:42;;;;;;;4.85;1.80;;;;;;;;;;5059559;28;20025;-29
2023/04/07 00:13:08;;;;;;;6.53;1.85;;;;;;;;;;5077323;28;20032;-32
2023/04/07 00:15:34;;;;;;;2.90;1.65;;;;;;;;;;5077099;28;20063;-29
2023/04/07 00:18:00;;;;;;;3.90;1.70;;;;;;;;;;5076756;28;20021;-30
2023/04/07 00:20:26;;;;;;;1.90;1.60;;;;;;;;;;5077028;28;20021;-29
2023/04/07 00:22:52;;;;;;;4.30;1.90;;;;;;;;;;5076923;28;20051;-29
2023/04/07 00:25:19;;;;;;;4.20;2.40;;;;;;;;;;5076701;28;20107;-29
2023/04/07 00:27:45;;;;;;;4.82;2.05;;;;;;;;;;5076897;28;20031;-29
2023/04/07 00:30:11;;;;;;;3.72;2.17;;;;;;;;;;5075302;28;20117;-30
2023/04/07 00:32:37;;;;;;;2.80;1.85;;;;;;;;;;5058714;28;20127;-29
2023/04/07 00:35:04;;;;;;;2.85;1.55;;;;;;;;;;5076458;28;20048;-30
2023/04/07 00:37:30;;;;;;;4.18;1.92;;;;;;;;;;5076689;28;20029;-30
2023/04/07 00:39:58;;;;;;;2.35;1.70;;;;;;;;;;5076422;28;20363;-27
2023/04/07 00:42:24;;;;;;;5.82;1.77;;;;;;;;;;5076508;28;20017;-30
2023/04/07 00:44:50;;;;;;;4.65;1.90;;;;;;;;;;5076531;28;20082;-28
2023/04/07 00:47:16;;;;;;;2.95;1.60;;;;;;;;;;5076317;28;20121;-30
2023/04/07 00:49:42;;;;;;;8.48;1.70;;;;;;;;;;5076196;28;20025;-29
2023/04/07 00:52:10;;;;;;;2.15;1.40;;;;;;;;;;5076257;28;20033;-30
2023/04/07 00:54:37;;;;;;;4.35;1.73;;;;;;;;;;5076382;28;20435;-30
2023/04/07 00:57:03;;;;;;;2.95;1.65;;;;;;;;;;5058504;28;20110;-27
2023/04/07 00:59:31;;;;;;;5.43;1.70;;;;;;;;;;5076037;28;20044;-31
2023/04/07 01:02:16;;;;;;;6.85;1.73;;;;;;;;;;5058259;28;20017;-28
2023/04/07 01:04:55;;;;;;;2.83;2.55;;;;;;;;;;5075755;28;20070;-30
2023/04/07 01:07:27;;;;;;;2.55;1.52;;;;;;;;;;5076412;28;20017;-30
2023/04/07 01:10:04;;;;;;;6.82;1.85;;;;;;;;;;5076090;28;20359;-32
2023/04/07 01:12:45;;;;;;;1.95;1.50;;;;;;;;;;5075588;28;20025;-31
2023/04/07 01:15:12;;;;;;;3.25;1.70;;;;;;;;;;5076006;28;20325;-28
2023/04/07 01:17:49;;;;;;;3.33;1.58;;;;;;;;;;5075630;28;20016;-30
2023/04/07 01:20:20;;;;;;;3.75;1.92;;;;;;;;;;5075560;28;20032;-31
2023/04/07 01:22:50;;;;;;;2.40;1.55;;;;;;;;;;5075713;28;20033;-27
2023/04/07 01:25:34;;;;;;;1.80;1.50;;;;;;;;;;5075408;28;20036;-30
2023/04/07 01:28:04;;;;;;;2.75;1.60;;;;;;;;;;5075434;28;20024;-29
2023/04/07 01:30:31;;;;;;;2.45;1.58;;;;;;;;;;5075349;28;20115;-31
2023/04/07 01:32:58;;;;;;;2.63;1.60;;;;;;;;;;5075307;28;20025;-31
2023/04/07 01:35:26;;;;;;;2.97;2.72;;;;;;;;;;5075334;28;20020;-28
2023/04/07 01:37:52;;;;;;;3.50;1.67;;;;;;;;;;5075264;28;20505;-30
2023/04/07 01:40:19;;;;;;;3.00;1.58;;;;;;;;;;5075749;28;20099;-29
2023/04/07 01:42:46;;;;;;;4.43;1.48;;;;;;;;;;5074747;28;20043;-30
2023/04/07 01:45:13;;;;;;;5.55;2.10;;;;;;;;;;5075063;28;20105;-30
2023/04/07 01:47:40;;;;;;;3.05;1.90;;;;;;;;;;5057466;28;20463;-32
2023/04/07 01:50:08;;;;;;;4.18;1.35;;;;;;;;;;5075280;28;20055;-27
2023/04/07 01:52:35;;;;;;;3.03;1.40;;;;;;;;;;5075080;28;20043;-29
2023/04/07 01:55:01;;;;;;;5.45;1.85;;;;;;;;;;5075462;28;20440;-28
2023/04/07 01:57:27;;;;;;;6.68;1.35;;;;;;;;;;5075197;28;20341;-30
2023/04/07 01:59:54;;;;;;;2.65;2.20;;;;;;;;;;5074900;28;20016;-29
2023/04/07 02:02:20;;;;;;;1.58;1.40;;;;;;;;;;5057024;28;20036;-27
2023/04/07 02:04:49;;;;;;;2.90;1.92;;;;;;;;;;5057219;28;20594;-29
2023/04/07 02:07:19;;;;;;;2.28;1.73;;;;;;;;;;5074813;28;20032;-29
2023/04/07 02:09:46;;;;;;;3.30;1.50;;;;;;;;;;5057135;28;20371;-30
2023/04/07 02:12:14;;;;;;;2.80;1.65;;;;;;;;;;5074579;28;20419;-29
2023/04/07 02:14:40;;;;;;;5.13;2.08;;;;;;;;;;5074702;28;20020;-30
2023/04/07 02:17:06;;;;;;;4.70;2.05;;;;;;;;;;5074674;28;20028;-29
2023/04/07 02:19:34;;;;;;;2.85;1.55;;;;;;;;;;5074886;28;20021;-28
2023/04/07 02:22:02;;;;;;;3.58;1.50;;;;;;;;;;5075207;28;20035;-30
2023/04/07 02:24:28;;;;;;;2.70;1.85;;;;;;;;;;5074578;28;20029;-30
2023/04/07 02:26:55;;;;;;;2.80;1.30;;;;;;;;;;5074582;28;20028;-31
2023/04/07 02:29:21;;;;;;;2.80;1.92;;;;;;;;;;5074834;28;20409;-30
2023/04/07 02:31:47;;;;;;;3.65;2.03;;;;;;;;;;5074368;28;20367;-27
2023/04/07 02:34:13;;;;;;;1.85;1.63;;;;;;;;;;5074501;28;20529;-29
2023/04/07 02:36:39;;;;;;;2.10;1.60;;;;;;;;;;5074772;28;20025;-30
2023/04/07 02:39:05;;;;;;;3.67;1.45;;;;;;;;;;5074704;28;20036;-30
2023/04/07 02:41:31;;;;;;;1.85;1.55;;;;;;;;;;5074747;28;20108;-30
2023/04/07 02:43:57;;;;;;;4.72;1.92;;;;;;;;;;5074618;28;20107;-31
2023/04/07 02:46:24;;;;;;;3.50;1.70;;;;;;;;;;5074666;28;20067;-29
2023/04/07 02:48:51;;;;;;;3.20;1.70;;;;;;;;;;5074691;28;20463;-26
2023/04/07 02:51:17;;;;;;;2.28;1.20;;;;;;;;;;5075391;28;20024;-30
2023/04/07 02:53:43;;;;;;;2.70;1.77;;;;;;;;;;5075496;28;20028;-28
2023/04/07 02:56:09;;;;;;;3.05;1.95;;;;;;;;;;5078415;28;20028;-28
2023/04/07 02:58:35;;;;;;;2.78;1.42;;;;;;;;;;5078354;28;20025;-31
2023/04/07 03:01:01;;;;;;;1.88;1.63;;;;;;;;;;5078558;28;20078;-27
2023/04/07 03:03:27;;;;;;;2.25;2.05;;;;;;;;;;5060264;28;20045;-31
2023/04/07 03:05:54;;;;;;;1.77;1.52;;;;;;;;;;5060575;28;20477;-27
2023/04/07 03:08:20;;;;;;;1.77;1.48;;;;;;;;;;5078412;28;20040;-32
2023/04/07 03:10:46;;;;;;;1.73;1.30;;;;;;;;;;5078326;28;20107;-31
2023/04/07 03:13:15;;;;;;;4.38;1.48;;;;;;;;;;5077907;28;20029;-29
2023/04/07 03:15:42;;;;;;;2.15;1.35;;;;;;;;;;5077991;28;20040;-30
2023/04/07 03:18:08;;;;;;;2.03;1.35;;;;;;;;;;5078195;28;20019;-29
2023/04/07 03:20:34;;;;;;;3.05;1.55;;;;;;;;;;5060772;28;20032;-30
2023/04/07 03:23:00;;;;;;;2.13;1.33;;;;;;;;;;5078009;28;20478;-28
2023/04/07 03:25:26;;;;;;;1.98;1.77;;;;;;;;;;5077738;28;20464;-30
2023/04/07 03:27:52;;;;;;;2.60;1.90;;;;;;;;;;5077976;28;20028;-30
2023/04/07 03:30:19;;;;;;;2.08;1.35;;;;;;;;;;5077732;28;20032;-30
2023/04/07 03:32:45;;;;;;;3.05;1.58;;;;;;;;;;5077695;28;20033;-28
2023/04/07 03:35:11;;;;;;;2.30;2.10;;;;;;;;;;5077580;28;20025;-31
2023/04/07 03:37:37;;;;;;;2.45;1.35;;;;;;;;;;5077565;28;20078;-30
2023/04/07 03:40:03;;;;;;;1.83;1.42;;;;;;;;;;5077745;28;20020;-31
2023/04/07 03:42:29;;;;;;;1.98;1.75;;;;;;;;;;5077760;28;20115;-30
2023/04/07 03:44:56;;;;;;;1.95;1.73;;;;;;;;;;5077426;28;20089;-29
2023/04/07 03:47:22;;;;;;;3.22;1.85;;;;;;;;;;5077912;28;20036;-30
2023/04/07 03:49:48;;;;;;;2.33;1.95;;;;;;;;;;5077306;28;20036;-31
2023/04/07 03:52:14;;;;;;;2.20;1.80;;;;;;;;;;5077040;28;20028;-31
2023/04/07 03:54:40;;;;;;;2.00;1.17;;;;;;;;;;5077386;28;20021;-30
2023/04/07 03:57:06;;;;;;;2.95;1.42;;;;;;;;;;5077310;28;20024;-31
2023/04/07 03:59:33;;;;;;;3.92;1.50;;;;;;;;;;5059483;28;20024;-28
2023/04/07 04:01:59;;;;;;;3.75;1.90;;;;;;;;;;5077312;28;20070;-29
2023/04/07 04:04:25;;;;;;;3.30;1.42;;;;;;;;;;5076573;28;20132;-32
2023/04/07 04:06:51;;;;;;;2.53;1.83;;;;;;;;;;5077173;28;20020;-28
2023/04/07 04:09:17;;;;;;;4.00;1.38;;;;;;;;;;5077144;28;20025;-30
2023/04/07 04:11:44;;;;;;;2.03;1.30;;;;;;;;;;5076990;28;20135;-28
2023/04/07 04:14:10;;;;;;;1.92;1.48;;;;;;;;;;5076714;28;20024;-30
2023/04/07 04:16:36;;;;;;;2.10;1.10;;;;;;;;;;5077009;28;20032;-31
2023/04/07 04:19:02;;;;;;;8.40;1.50;;;;;;;;;;5076873;28;20024;-29
2023/04/07 04:21:29;;;;;;;3.33;1.30;;;;;;;;;;5076910;28;20348;-30
2023/04/07 04:23:55;;;;;;;3.47;2.50;;;;;;;;;;5058842;28;20021;-27
2023/04/07 04:26:24;;;;;;;1.98;1.55;;;;;;;;;;5076981;28;20044;-29
2023/04/07 04:28:51;;;;;;;2.00;1.42;;;;;;;;;;5076793;28;20044;-31
2023/04/07 04:31:17;;;;;;;1.67;1.25;;;;;;;;;;5076919;28;20034;-32
2023/04/07 04:33:43;;;;;;;6.38;2.05;;;;;;;;;;5076705;28;20033;-28
2023/04/07 04:36:09;;;;;;;2.05;1.50;;;;;;;;;;5076367;28;20016;-29
2023/04/07 04:38:35;;;;;;;2.83;1.83;;;;;;;;;;5076384;28;20021;-30
2023/04/07 04:41:02;;;;;;;4.13;1.30;;;;;;;;;;5076722;28;20027;-30
2023/04/07 04:43:28;;;;;;;3.03;1.30;;;;;;;;;;5076178;28;20100;-29
2023/04/07 04:45:55;;;;;;;1.60;1.50;;;;;;;;;;5076439;28;20027;-31
2023/04/07 04:48:21;;;;;;;3.75;1.50;;;;;;;;;;5076423;28;20104;-31
2023/04/07 04:50:47;;;;;;;6.90;1.85;;;;;;;;;;5076679;28;20032;-29
2023/04/07 04:53:13;;;;;;;1.40;1.30;;;;;;;;;;5075800;28;20185;-33
2023/04/07 04:55:45;;;;;;;2.35;1.60;;;;;;;;;;5076276;28;20058;-31
2023/04/07 04:58:12;;;;;;;3.25;1.80;;;;;;;;;;5076560;28;20030;-27
2023/04/07 05:00:38;;;;;;;3.33;2.42;;;;;;;;;;5076479;28;20032;-30
2023/04/07 05:03:04;;;;;;;3.65;2.15;;;;;;;;;;5057999;28;20379;-27
2023/04/07 05:05:30;;;;;;;2.78;1.40;;;;;;;;;;5075798;28;20052;-27
2023/04/07 05:07:56;;;;;;;2.53;1.65;;;;;;;;;;5075712;28;20455;-29
2023/04/07 05:10:23;;;;;;;3.22;2.17;;;;;;;;;;5075722;28;20111;-29
2023/04/07 05:12:49;;;;;;;3.83;2.42;;;;;;;;;;5075536;28;20025;-29
2023/04/07 05:15:15;;;;;;;3.47;1.55;;;;;;;;;;5075608;28;20017;-34
2023/04/07 05:17:42;;;;;;;2.75;1.70;;;;;;;;;;5074906;28;20099;-31
2023/04/07 05:20:09;;;;;;;1.75;1.38;;;;;;;;;;5075555;28;20463;-32
2023/04/07 05:22:36;;;;;;;2.63;1.67;;;;;;;;;;5075277;28;20098;-28
2023/04/07 05:25:02;;;;;;;3.03;1.20;;;;;;;;;;5075865;28;20483;-32
2023/04/07 05:27:28;;;;;;;2.13;1.55;;;;;;;;;;5075435;28;20060;-28
2023/04/07 05:29:54;;;;;;;2.60;1.40;;;;;;;;;;5075351;28;20463;-30
2023/04/07 05:32:20;;;;;;;3.47;1.55;;;;;;;;;;5075139;28;20149;-32
2023/04/07 05:34:46;;;;;;;3.22;1.58;;;;;;;;;;5075247;28;20031;-27
2023/04/07 05:37:12;;;;;;;4.40;1.90;;;;;;;;;;5075497;28;20056;-29
2023/04/07 05:39:39;;;;;;;5.20;1.52;;;;;;;;;;5075671;28;20463;-27
2023/04/07 05:42:05;;;;;;;2.30;1.27;;;;;;;;;;5074962;28;20032;-28
2023/04/07 05:44:31;;;;;;;1.88;1.60;;;;;;;;;;5075038;28;20017;-30
2023/04/07 05:46:57;;;;;;;5.75;1.50;;;;;;;;;;5075002;28;20020;-30
2023/04/07 05:49:23;;;;;;;5.82;2.00;;;;;;;;;;5075033;28;20157;-29
2023/04/07 05:51:49;;;;;;;5.10;2.05;;;;;;;;;;5075121;28;20016;-31
2023/04/07 05:54:15;;;;;;;4.88;1.60;;;;;;;;;;5075076;28;20344;-27
2023/04/07 05:56:41;;;;;;;5.05;1.98;;;;;;;;;;5074826;28;20031;-31
2023/04/07 05:59:08;;;;;;;5.00;1.40;;;;;;;;;;5075131;28;20020;-29
2023/04/07 06:01:34;;;;;;;2.35;1.70;;;;;;;;;;5057281;28;20021;-30
2023/04/07 06:04:02;;;;;;;4.00;1.50;;;;;;;;;;5074365;28;20041;-30
2023/04/07 06:06:28;;;;;;;4.68;1.80;;;;;;;;;;5074533;28;20094;-31
2023/04/07 06:08:54;;;;;;;1.50;1.40;;;;;;;;;;5074999;28;20077;-30
2023/04/07 06:11:20;;;;;;;6.47;1.65;;;;;;;;;;5074570;28;20028;-29
2023/04/07 06:13:47;;;;;;;4.05;1.77;;;;;;;;;;5074622;28;20025;-30
2023/04/07 06:16:13;;;;;;;4.90;2.10;;;;;;;;;;5074612;28;20095;-28
2023/04/07 06:18:39;;;;;;;4.32;1.30;;;;;;;;;;5056973;28;20158;-27
2023/04/07 06:21:05;;;;;;;3.20;2.15;;;;;;;;;;5074877;28;20341;-31
2023/04/07 06:23:31;;;;;;;2.95;1.80;;;;;;;;;;5074528;28;20036;-27
2023/04/07 06:25:57;;;;;;;3.35;1.67;;;;;;;;;;5074599;28;20025;-30
2023/04/07 06:28:23;;;;;;;6.57;1.80;;;;;;;;;;5074784;28;20048;-29
2023/04/07 06:30:50;;;;;;;5.47;2.00;;;;;;;;;;5074543;28;20090;-27
2023/04/07 06:33:16;;;;;;;3.00;1.75;;;;;;;;;;5074322;28;20024;-29
2023/04/07 06:35:42;;;;;;;2.60;1.45;;;;;;;;;;5074470;28;20025;-28
2023/04/07 06:38:10;;;;;;;1.83;1.52;;;;;;;;;;5074387;28;20103;-28
2023/04/07 06:40:36;;;;;;;3.78;2.10;;;;;;;;;;5074411;28;20360;-29
2023/04/07 06:43:03;;;;;;;4.15;1.55;;;;;;;;;;5074383;28;20036;-30
2023/04/07 06:45:29;;;;;;;2.38;1.50;;;;;;;;;;5074509;28;20028;-27
2023/04/07 06:47:55;;;;;;;7.45;1.60;;;;;;;;;;5074309;28;20033;-30
2023/04/07 06:50:21;;;;;;;8.68;2.35;;;;;;;;;;5074217;28;20029;-28
2023/04/07 06:52:48;;;;;;;5.90;1.73;;;;;;;;;;5074258;28;20031;-30
2023/04/07 06:55:14;;;;;;;5.50;2.53;;;;;;;;;;5074621;28;20070;-29
2023/04/07 06:57:40;;;;;;;13.63;2.45;;;;;;;;;;5074286;28;20446;-30
2023/04/07 07:00:07;;;;;;;3.78;1.75;;;;;;;;;;5074765;28;20029;-30
2023/04/07 07:02:34;;;;;;;4.72;1.65;;;;;;;;;;5056653;28;20044;-30
2023/04/07 07:05:01;;;;;;;7.50;2.13;;;;;;;;;;5074521;28;20029;-29
2023/04/07 07:07:27;;;;;;;7.25;2.63;;;;;;;;;;5074378;28;20031;-31
2023/04/07 07:09:53;;;;;;;7.47;2.63;;;;;;;;;;5073997;28;20059;-30
2023/04/07 07:12:19;;;;;;;7.95;2.00;;;;;;;;;;5074173;28;20112;-31
2023/04/07 07:14:46;;;;;;;6.18;1.65;;;;;;;;;;5073910;28;20077;-28
2023/04/07 07:17:12;;;;;;;6.00;2.55;;;;;;;;;;5074087;28;20044;-28
2023/04/07 07:19:38;;;;;;;9.52;1.95;;;;;;;;;;5074035;28;20395;-31
2023/04/07 07:22:04;;;;;;;4.47;1.92;;;;;;;;;;5073699;28;20017;-30
2023/04/07 07:24:32;;;;;;;3.60;1.90;;;;;;;;;;5073961;28;20028;-30
2023/04/07 07:26:59;;;;;;;7.10;2.53;;;;;;;;;;5074201;28;20097;-32
2023/04/07 07:29:25;;;;;;;6.60;1.60;;;;;;;;;;5074169;28;20085;-30
2023/04/07 07:31:52;;;;;;;2.60;1.90;;;;;;;;;;5073829;28;20020;-31
2023/04/07 07:34:18;;;;;;;3.95;1.73;;;;;;;;;;5073703;28;20077;-30
2023/04/07 07:36:44;;;;;;;4.10;2.22;;;;;;;;;;5074124;28;20031;-31
2023/04/07 07:39:10;;;;;;;3.92;2.13;;;;;;;;;;5073890;28;20021;-28
2023/04/07 07:41:36;;;;;;;12.13;2.20;;;;;;;;;;5077373;28;20100;-30
2023/04/07 07:44:02;;;;;;;3.13;1.77;;;;;;;;;;5059667;28;20475;-28
2023/04/07 07:46:28;;;;;;;3.72;1.77;;;;;;;;;;5077315;28;20325;-33
2023/04/07 07:48:55;;;;;;;5.45;2.53;;;;;;;;;;5077381;28;20103;-31
2023/04/07 07:51:21;;;;;;;9.75;2.15;;;;;;;;;;5059517;28;20033;-29
2023/04/07 07:53:47;;;;;;;4.65;1.70;;;;;;;;;;5077209;28;20032;-30
2023/04/07 07:56:13;;;;;;;5.65;1.58;;;;;;;;;;5077223;28;20029;-28
2023/04/07 07:58:40;;;;;;;3.65;1.67;;;;;;;;;;5077165;28;20082;-30
2023/04/07 08:01:06;;;;;;;2.17;1.95;;;;;;;;;;5076944;28;20032;-27
2023/04/07 08:03:32;;;;;;;4.40;1.90;;;;;;;;;;5076751;28;20069;-30
2023/04/07 08:05:59;;;;;;;5.43;2.08;;;;;;;;;;5077165;28;20039;-29
2023/04/07 08:08:26;;;;;;;7.72;2.17;;;;;;;;;;5076928;28;20025;-31
2023/04/07 08:10:53;;;;;;;4.97;2.13;;;;;;;;;;5076910;28;20144;-30
2023/04/07 08:13:19;;;;;;;5.45;1.70;;;;;;;;;;5059263;28;20024;-29
2023/04/07 08:15:45;;;;;;;5.47;2.20;;;;;;;;;;5077023;28;20020;-30
2023/04/07 08:18:12;;;;;;;6.40;2.60;;;;;;;;;;5077317;28;20048;-30
2023/04/07 08:20:38;;;;;;;7.10;2.08;;;;;;;;;;5076864;28;20029;-27
2023/04/07 08:23:04;;;;;;;3.63;1.80;;;;;;;;;;5076603;28;20025;-30
2023/04/07 08:25:30;;;;;;;5.90;2.17;;;;;;;;;;5076461;28;20021;-28
2023/04/07 08:27:57;;;;;;;8.60;2.13;;;;;;;;;;5076429;28;20032;-32
2023/04/07 08:30:23;;;;;;;6.07;2.22;;;;;;;;;;5076630;28;20040;-27
2023/04/07 08:32:49;;;;;;;9.07;2.22;;;;;;;;;;5076141;28;20066;-29
2023/04/07 08:35:15;;;;;;;12.07;2.38;;;;;;;;;;5076483;28;20483;-31
2023/04/07 08:37:43;;;;;;;14.88;2.88;;;;;;;;;;5076577;28;20025;-32
2023/04/07 08:40:09;;;;;;;6.05;1.70;;;;;;;;;;5076045;28;20086;-30
2023/04/07 08:42:40;;;;;;;6.80;1.52;;;;;;;;;;5076440;28;20351;-30
2023/04/07 08:45:07;;;;;;;6.10;1.95;;;;;;;;;;5076322;28;20056;-27
2023/04/07 08:47:35;;;;;;;6.07;1.90;;;;;;;;;;5076550;28;20404;-30
2023/04/07 08:50:02;;;;;;;11.50;2.63;;;;;;;;;;5076230;28;20032;-31
2023/04/07 08:52:44;;;;;;;14.18;2.67;;;;;;;;;;5075053;28;20108;-28
2023/04/07 08:55:11;;;;;;;6.35;2.53;;;;;;;;;;5076219;28;20142;-34
2023/04/07 08:57:37;;;;;;;11.95;2.67;;;;;;;;;;5076454;28;20021;-29
2023/04/07 09:00:06;;;;;;;7.85;2.33;;;;;;;;;;5075816;28;20363;-30
2023/04/07 09:02:33;;;;;;;7.32;1.92;;;;;;;;;;5075775;28;20035;-27
2023/04/07 09:05:00;;;;;;;8.73;2.22;;;;;;;;;;5076394;28;20078;-30
2023/04/07 09:07:26;;;;;;;5.03;2.70;;;;;;;;;;5075995;28;20033;-31
2023/04/07 09:09:52;;;;;;;2.63;1.95;;;;;;;;;;5076000;28;20025;-28
2023/04/07 09:12:18;;;;;;;7.00;1.90;;;;;;;;;;5075761;28;20043;-30
2023/04/07 09:14:44;;;;;;;13.57;2.03;;;;;;;;;;5076379;28;20044;-31
2023/04/07 09:17:11;;;;;;;10.10;2.58;;;;;;;;;;5075894;28;20096;-31
2023/04/07 09:19:37;;;;;;;10.13;1.90;;;;;;;;;;5075452;28;20025;-28
2023/04/07 09:22:03;;;;;;;7.22;1.85;;;;;;;;;;5075284;28;20059;-30
2023/04/07 09:24:32;;;;;;;9.63;1.83;;;;;;;;;;5075704;28;20025;-28
2023/04/07 09:27:10;;;;;;;14.93;2.58;;;;;;;;;;5076026;28;20468;-29
2023/04/07 09:29:36;;;;;;;5.28;1.92;;;;;;;;;;5075457;28;20079;-30
2023/04/07 09:32:02;;;;;;;8.73;2.30;;;;;;;;;;5074988;28;20372;-29
2023/04/07 09:34:31;;;;;;;6.43;2.20;;;;;;;;;;5075476;28;20020;-31
2023/04/07 09:36:58;;;;;;;4.13;1.80;;;;;;;;;;5075391;28;20016;-31
2023/04/07 09:39:24;;;;;;;7.07;2.65;;;;;;;;;;5075076;28;20032;-31
2023/04/07 09:41:51;;;;;;;5.70;1.92;;;;;;;;;;5057239;28;20044;-31
2023/04/07 09:44:21;;;;;;;3.13;1.73;;;;;;;;;;5074934;28;20090;-32
2023/04/07 09:46:56;;;;;;;4.15;2.53;;;;;;;;;;5075434;28;20048;-26
2023/04/07 09:49:24;;;;;;;3.92;2.72;;;;;;;;;;5075072;28;20036;-29
2023/04/07 09:51:58;;;;;;;4.63;1.73;;;;;;;;;;5057936;28;20439;-30
2023/04/07 09:54:54;;;;;;;6.70;2.13;;;;;;;;;;5075137;28;20098;-32
2023/04/07 09:57:21;;;;;;;3.65;1.95;;;;;;;;;;5058092;28;20040;-29
2023/04/07 09:59:48;;;;;;;2.90;1.65;;;;;;;;;;5075484;28;20347;-29
2023/04/07 10:02:16;;;;;;;3.40;1.70;;;;;;;;;;5074415;28;20104;-30
2023/04/07 10:04:42;;;;;;;11.32;2.50;;;;;;;;;;5074446;28;20414;-30
2023/04/07 10:07:08;;;;;;;8.63;2.33;;;;;;;;;;5074562;28;20024;-28
2023/04/07 10:09:35;;;;;;;6.78;2.10;;;;;;;;;;5074578;28;20343;-30
2023/04/07 10:12:01;;;;;;;11.18;2.33;;;;;;;;;;5074359;28;20111;-31
2023/04/07 10:14:30;;;;;;;6.47;2.45;;;;;;;;;;5056823;28;20059;-30
2023/04/07 10:16:59;;;;;;;8.60;1.88;;;;;;;;;;5074743;28;20025;-30
2023/04/07 10:19:29;;;;;;;5.65;1.90;;;;;;;;;;5074572;28;20043;-28
2023/04/07 10:21:56;;;;;;;6.22;3.13;;;;;;;;;;5074613;28;20024;-30
2023/04/07 10:24:37;;;;;;;5.38;3.03;;;;;;;;;;5074515;28;20028;-29
2023/04/07 10:27:07;;;;;;;6.30;2.13;;;;;;;;;;5074088;28;20028;-32
2023/04/07 10:29:38;;;;;;;4.55;1.95;;;;;;;;;;5074381;28;20026;-29
2023/04/07 10:32:04;;;;;;;3.25;2.20;;;;;;;;;;5074331;28;20443;-30
2023/04/07 10:34:53;;;;;;;6.75;2.10;;;;;;;;;;5074265;28;20016;-30
2023/04/07 10:37:21;;;;;;;5.93;2.30;;;;;;;;;;5061910;28;20374;-27
2023/04/07 10:40:06;;;;;;;6.25;2.60;;;;;;;;;;5074133;28;20029;-31
2023/04/07 10:42:38;;;;;;;6.68;2.85;;;;;;;;;;5074483;28;20032;-29
2023/04/07 10:45:05;;;;;;;6.10;2.63;;;;;;;;;;5073949;28;20043;-31
2023/04/07 10:47:31;;;;;;;8.55;1.65;;;;;;;;;;5074185;28;20040;-28
2023/04/07 10:50:29;;;;;;;4.95;2.42;;;;;;;;;;5074130;28;20025;-29
2023/04/07 10:53:13;;;;;;;10.55;2.45;;;;;;;;;;5030089;28;20090;-30
2023/04/07 10:55:43;;;;;;;9.57;2.13;;;;;;;;;;5074257;28;20024;-35
2023/04/07 10:58:22;;;;;;;8.43;2.10;;;;;;;;;;5074337;28;20108;-29
2023/04/07 11:01:01;;;;;;;10.48;3.25;;;;;;;;;;5074861;28;20040;-30
2023/04/07 11:03:28;;;;;;;14.63;3.08;;;;;;;;;;5052754;28;20087;-32
2023/04/07 11:06:03;;;;;;;11.95;2.67;;;;;;;;;;5053405;28;20029;-30
2023/04/07 11:08:49;;;;;;;9.80;3.65;;;;;;;;;;5053024;28;20025;-31
2023/04/07 11:11:16;;;;;;;6.40;2.78;;;;;;;;;;5053995;28;20103;-29
2023/04/07 11:13:43;;;;;;;3.13;1.80;;;;;;;;;;5053961;28;20021;-30
2023/04/07 11:16:10;;;;;;;7.45;2.78;;;;;;;;;;5058268;28;20033;-32
2023/04/07 11:18:39;;;;;;;3.42;1.95;;;;;;;;;;5057867;28;20045;-31
2023/04/07 11:21:05;;;;;;;5.25;1.65;;;;;;;;;;5058416;28;20032;-30
2023/04/07 11:23:38;;;;;;;11.18;1.95;;;;;;;;;;5057806;28;20359;-30
2023/04/07 11:26:05;;;;;;;3.45;2.35;;;;;;;;;;5057589;28;20360;-31
2023/04/07 11:28:31;;;;;;;8.60;2.50;;;;;;;;;;5056498;28;20029;-29
2023/04/07 11:30:58;;;;;;;4.78;1.92;;;;;;;;;;5057514;28;20104;-29
2023/04/07 11:33:30;;;;;;;8.52;2.15;;;;;;;;;;5057641;28;20448;-31
2023/04/07 11:36:00;;;;;;;7.03;2.33;;;;;;;;;;5057717;28;20351;-30
2023/04/07 11:38:27;;;;;;;6.45;2.00;;;;;;;;;;5057354;28;20017;-28
2023/04/07 11:40:54;;;;;;;5.80;2.25;;;;;;;;;;5057812;28;20029;-30
2023/04/07 11:43:20;;;;;;;7.55;2.22;;;;;;;;;;5057414;28;20368;-30
2023/04/07 11:45:47;;;;;;;6.95;2.28;;;;;;;;;;5057594;28;20028;-31
2023/04/07 11:48:39;;;;;;;7.75;2.20;;;;;;;;;;5057070;28;20041;-31
2023/04/07 11:51:06;;;;;;;9.88;2.83;;;;;;;;;;5053818;28;20036;-30
2023/04/07 11:53:33;;;;;;;5.57;2.17;;;;;;;;;;5057257;28;20032;-31
2023/04/07 11:56:03;;;;;;;11.02;2.38;;;;;;;;;;5057455;28;20024;-32
2023/04/07 11:58:30;;;;;;;9.30;2.20;;;;;;;;;;5057503;28;20333;-31
2023/04/07 12:00:57;;;;;;;9.85;4.15;;;;;;;;;;5057266;28;20028;-30
2023/04/07 12:03:23;;;;;;;7.80;2.42;;;;;;;;;;5065515;28;20056;-27
2023/04/07 12:05:50;;;;;;;6.68;2.58;;;;;;;;;;5076944;28;20021;-30
2023/04/07 12:08:16;;;;;;;8.75;2.97;;;;;;;;;;5059270;28;20039;-31
2023/04/07 12:10:42;;;;;;;5.03;2.00;;;;;;;;;;5076835;28;20062;-32
2023/04/07 12:13:09;;;;;;;14.48;2.75;;;;;;;;;;5076700;28;20032;-29
2023/04/07 12:15:36;;;;;;;16.83;2.72;;;;;;;;;;5077065;28;20020;-33
2023/04/07 12:18:02;;;;;;;10.55;2.75;;;;;;;;;;5076765;28;20455;-35
2023/04/07 12:20:29;;;;;;;10.95;2.40;;;;;;;;;;5077093;28;20402;-30
2023/04/07 12:22:56;;;;;;;9.45;2.45;;;;;;;;;;5059063;28;20071;-30
2023/04/07 12:25:22;;;;;;;11.77;2.80;;;;;;;;;;5076942;28;20025;-31
2023/04/07 12:27:48;;;;;;;9.95;3.13;;;;;;;;;;5076605;28;20097;-29
2023/04/07 12:30:14;;;;;;;8.40;2.50;;;;;;;;;;5076439;28;20470;-31
2023/04/07 12:32:40;;;;;;;6.20;2.38;;;;;;;;;;5076259;28;20025;-30
2023/04/07 12:35:07;;;;;;;11.57;2.33;;;;;;;;;;5076826;28;20021;-30
2023/04/07 12:37:33;;;;;;;7.97;2.35;;;;;;;;;;5076564;28;20356;-29
2023/04/07 12:39:59;;;;;;;11.15;2.30;;;;;;;;;;5076878;28;20063;-31
2023/04/07 12:42:26;;;;;;;6.95;2.83;;;;;;;;;;5058573;28;20027;-27
2023/04/07 12:44:52;;;;;;;10.30;2.53;;;;;;;;;;5076150;28;20028;-30
2023/04/07 12:47:18;;;;;;;4.97;2.60;;;;;;;;;;5076137;28;20017;-31
2023/04/07 12:49:44;;;;;;;5.47;2.53;;;;;;;;;;5076177;28;20021;-32
2023/04/07 12:52:10;;;;;;;3.25;2.08;;;;;;;;;;5076249;28;20036;-32
2023/04/07 12:54:37;;;;;;;11.13;2.65;;;;;;;;;;5076098;28;20095;-29
2023/04/07 12:57:03;;;;;;;7.07;2.58;;;;;;;;;;5076295;28;20374;-31
2023/04/07 12:59:29;;;;;;;7.28;4.38;;;;;;;;;;5075894;28;20396;-30
2023/04/07 13:01:56;;;;;;;9.18;2.10;;;;;;;;;;5075822;28;20020;-38
2023/04/07 13:04:23;;;;;;;13.48;3.28;;;;;;;;;;5075769;28;20049;-29
2023/04/07 13:06:49;;;;;;;11.77;2.13;;;;;;;;;;5076031;28;20099;-30
2023/04/07 13:09:16;;;;;;;5.70;2.20;;;;;;;;;;5075975;28;20032;-30
2023/04/07 13:11:42;;;;;;;4.38;2.53;;;;;;;;;;5075995;28;20052;-32
2023/04/07 13:14:08;;;;;;;6.40;1.80;;;;;;;;;;5075812;28;20024;-30
2023/04/07 13:16:34;;;;;;;6.53;3.10;;;;;;;;;;5075742;28;20454;-31
2023/04/07 13:19:00;;;;;;;9.18;2.40;;;;;;;;;;5075648;28;20051;-30
2023/04/07 13:21:27;;;;;;;4.22;1.95;;;;;;;;;;5076541;28;20012;-31
2023/04/07 13:23:53;;;;;;;7.32;3.95;;;;;;;;;;5075492;28;20096;-29
2023/04/07 13:26:19;;;;;;;5.47;2.42;;;;;;;;;;5075920;28;20032;-29
2023/04/07 13:28:46;;;;;;;5.72;2.13;;;;;;;;;;5075922;28;20238;-31
2023/04/07 13:31:14;;;;;;;20.95;2.58;;;;;;;;;;5075362;28;20025;-30
2023/04/07 13:33:41;;;;;;;8.82;2.55;;;;;;;;;;5057565;28;20031;-29
2023/04/07 13:36:07;;;;;;;7.70;2.40;;;;;;;;;;5075230;28;20097;-29
2023/04/07 13:38:33;;;;;;;7.57;2.95;;;;;;;;;;5074624;28;20028;-30
2023/04/07 13:40:59;;;;;;;8.23;2.60;;;;;;;;;;5075664;28;20023;-31
2023/04/07 13:43:25;;;;;;;2.65;2.08;;;;;;;;;;5075407;28;20031;-30
2023/04/07 13:45:51;;;;;;;7.28;2.17;;;;;;;;;;5075139;28;20029;-30
2023/04/07 13:48:17;;;;;;;4.45;2.58;;;;;;;;;;5074932;28;20086;-28
2023/04/07 13:50:44;;;;;;;3.80;2.00;;;;;;;;;;5075057;28;20478;-32
2023/04/07 13:53:10;;;;;;;8.10;1.92;;;;;;;;;;5075176;28;20033;-32
2023/04/07 13:55:36;;;;;;;9.85;2.75;;;;;;;;;;5075032;28;20069;-29
2023/04/07 13:58:02;;;;;;;6.25;2.10;;;;;;;;;;5075120;28;20108;-29
2023/04/07 14:00:28;;;;;;;10.07;2.58;;;;;;;;;;5075719;28;20309;-28
2023/04/07 14:02:55;;;;;;;11.88;2.47;;;;;;;;;;5074742;28;20044;-30
2023/04/07 14:05:21;;;;;;;11.70;3.42;;;;;;;;;;5074898;28;20024;-28
2023/04/07 14:07:48;;;;;;;10.02;2.72;;;;;;;;;;5074859;28;20024;-28
2023/04/07 14:10:14;;;;;;;10.15;2.60;;;;;;;;;;5074794;28;20028;-28
2023/04/07 14:12:40;;;;;;;8.38;2.40;;;;;;;;;;5074559;28;20032;-27
2023/04/07 14:15:07;;;;;;;10.05;3.13;;;;;;;;;;5074958;28;20317;-28
2023/04/07 14:17:33;;;;;;;6.25;2.72;;;;;;;;;;5074708;28;20108;-29
2023/04/07 14:19:59;;;;;;;7.30;3.42;;;;;;;;;;5074937;28;20392;-29
2023/04/07 14:22:25;;;;;;;8.82;2.30;;;;;;;;;;5074600;28;20029;-30
2023/04/07 14:24:52;;;;;;;7.30;2.58;;;;;;;;;;5074669;28;20020;-29
2023/04/07 14:27:20;;;;;;;6.15;2.95;;;;;;;;;;5057055;28;20012;-32
2023/04/07 14:29:47;;;;;;;12.75;2.88;;;;;;;;;;5074478;28;20027;-32
2023/04/07 14:32:13;;;;;;;22.80;3.10;;;;;;;;;;5074386;28;20082;-31
2023/04/07 14:34:39;;;;;;;26.58;2.90;;;;;;;;;;5074489;28;20022;-32
2023/04/07 14:37:06;;;;;;;16.67;3.22;;;;;;;;;;5074742;28;20031;-31
2023/04/07 14:39:32;;;;;;;33.72;4.05;;;;;;;;;;5074420;28;20445;-30
2023/04/07 14:41:59;;;;;;;13.95;3.67;;;;;;;;;;5074556;28;20095;-28